Terminal Aerodrome Forecast
Issued by NWS Greer, SC

Home | Current Version | Previous Version | Text Only | Print | Product List | Glossary On
Versions: 1 2 3 4 5 6 7 8 9 10 11 12 13 14 15 16 17 18 19 20 21 22 23 24 25 26 27 28 29 30 31 32 33 34 35 36 37 38 39 40
000
FTUS42 KGSP 260522
TAFCLT
TAF
KCLT 260522Z 2606/2706 16010KT P6SM FEW070 SCT250
     FM261100 15005KT 5SM BR BKN030
     FM261200 15005KT 4SM BR BKN015
     FM261500 16006KT P6SM VCSH BKN025
     FM261800 17010KT P6SM BKN015 PROB30 2618/2623 2SM -SHRA OVC007
     FM262300 19009KT P6SM BKN045 PROB30 2623/2702 4SM -SHRA OVC025=

USA.gov is the U.S. government's official web portal to all federal, state and local government web resources and services.